createdAt,value
2019-03-24T00:01:40.783Z,28.92
2019-03-24T00:04:02.761Z,23.83
2019-03-24T00:06:32.816Z,26.10
2019-03-24T00:09:02.970Z,21.60
2019-03-24T00:11:34.010Z,22.95
2019-03-24T00:14:04.236Z,28.10
2019-03-24T00:16:34.323Z,25.30
2019-03-24T00:19:04.405Z,28.15
2019-03-24T00:21:34.464Z,29.20
2019-03-24T00:24:04.563Z,29.65
2019-03-24T00:26:34.637Z,22.30
2019-03-24T00:29:04.678Z,28.55
2019-03-24T00:31:34.763Z,30.15
2019-03-24T00:34:04.803Z,30.48
2019-03-24T00:36:34.886Z,23.65
2019-03-24T00:39:06.521Z,27.67
2019-03-24T00:41:36.587Z,33.92
2019-03-24T00:44:06.621Z,24.63
2019-03-24T00:46:36.681Z,27.45
2019-03-24T00:49:06.718Z,27.60
2019-03-24T00:51:36.771Z,25.68
2019-03-24T00:54:06.816Z,27.90
2019-03-24T00:56:36.881Z,25.88
2019-03-24T00:59:06.929Z,24.83
2019-03-24T01:01:36.973Z,32.42
2019-03-24T01:04:07.019Z,27.87
2019-03-24T01:06:37.061Z,32.95
2019-03-24T01:09:08.352Z,26.00
2019-03-24T01:11:38.555Z,24.92
2019-03-24T01:14:08.671Z,22.70
2019-03-24T01:16:38.728Z,28.23
2019-03-24T01:19:08.765Z,24.98
2019-03-24T01:21:38.822Z,27.87
2019-03-24T01:24:08.870Z,27.62
2019-03-24T01:26:38.921Z,25.97
2019-03-24T01:29:08.960Z,31.95
2019-03-24T01:31:38.999Z,26.07
2019-03-24T01:34:09.043Z,35.78
2019-03-24T01:36:39.091Z,26.93
2019-03-24T01:39:09.168Z,34.10
2019-03-24T01:41:39.211Z,24.37
2019-03-24T01:44:09.265Z,22.90
2019-03-24T01:46:39.305Z,19.87
2019-03-24T01:49:09.360Z,26.10
2019-03-24T01:51:39.404Z,22.10
2019-03-24T01:54:09.464Z,24.27
2019-03-24T01:56:39.515Z,34.05
2019-03-24T01:59:09.583Z,27.13
2019-03-24T02:01:39.624Z,30.02
2019-03-24T02:04:09.691Z,24.67
2019-03-24T02:06:39.740Z,25.00
2019-03-24T02:09:10.686Z,16.70
2019-03-24T02:11:40.817Z,28.10
2019-03-24T02:14:10.887Z,24.12
2019-03-24T02:16:40.931Z,27.32
2019-03-24T02:19:10.999Z,24.02
2019-03-24T02:21:41.064Z,27.32
2019-03-24T02:24:11.094Z,23.53
2019-03-24T02:26:41.142Z,21.55
2019-03-24T02:29:11.180Z,20.73
2019-03-24T02:31:41.240Z,42.27
2019-03-24T02:34:11.288Z,33.13
2019-03-24T02:36:42.312Z,31.40
2019-03-24T02:39:12.364Z,21.97
2019-03-24T02:41:42.429Z,30.68
2019-03-24T02:44:12.456Z,30.35
2019-03-24T02:46:42.528Z,25.05
2019-03-24T02:49:12.566Z,26.25
2019-03-24T02:51:42.630Z,31.33
2019-03-24T02:54:12.674Z,25.27
2019-03-24T02:56:42.754Z,31.23
2019-03-24T02:59:12.831Z,20.77
2019-03-24T03:01:42.905Z,28.42
2019-03-24T03:04:12.987Z,29.52
2019-03-24T03:06:43.031Z,29.87
2019-03-24T03:09:13.084Z,30.85
2019-03-24T03:11:43.128Z,32.63
2019-03-24T03:14:13.228Z,30.10
2019-03-24T03:16:43.272Z,30.52
2019-03-24T03:19:13.344Z,27.40
2019-03-24T03:21:43.386Z,32.20
2019-03-24T03:24:13.513Z,42.55
2019-03-24T03:26:43.557Z,32.88
2019-03-24T03:29:13.602Z,22.35
2019-03-24T03:31:43.708Z,22.85
2019-03-24T03:34:13.781Z,20.30
2019-03-24T03:36:43.862Z,21.23
2019-03-24T03:39:13.916Z,29.37
2019-03-24T03:41:43.975Z,29.35
2019-03-24T03:44:14.028Z,29.32
2019-03-24T03:46:52.393Z,42.05
2019-03-24T03:49:16.812Z,38.58
2019-03-24T03:51:46.886Z,42.38
2019-03-24T03:54:16.923Z,29.75
2019-03-24T03:56:46.983Z,32.25
2019-03-24T03:59:17.022Z,44.53
2019-03-24T04:01:47.105Z,36.98
2019-03-24T04:04:17.145Z,37.15
2019-03-24T04:06:47.219Z,40.43
2019-03-24T04:09:17.281Z,41.83
2019-03-24T04:11:47.346Z,53.50
2019-03-24T04:14:17.415Z,37.45
2019-03-24T04:16:48.404Z,47.43
2019-03-24T04:19:18.466Z,48.58
2019-03-24T04:21:48.513Z,36.53
2019-03-24T04:24:18.561Z,36.65
2019-03-24T04:26:49.135Z,37.60
2019-03-24T04:29:19.177Z,40.20
2019-03-24T04:31:49.279Z,42.88
2019-03-24T04:34:19.351Z,48.05
2019-03-24T04:36:49.398Z,37.10
2019-03-24T04:39:19.455Z,42.48
2019-03-24T04:41:49.508Z,44.75
2019-03-24T04:44:19.569Z,44.23
2019-03-24T04:46:49.618Z,50.28
2019-03-24T04:49:19.690Z,45.08
2019-03-24T04:51:50.845Z,43.65
2019-03-24T04:54:20.950Z,47.67
2019-03-24T04:56:51.145Z,68.30
2019-03-24T04:59:21.162Z,37.60
2019-03-24T05:01:51.309Z,49.37
2019-03-24T05:04:21.370Z,43.25
2019-03-24T05:06:51.695Z,55.70
2019-03-24T05:09:22.017Z,46.13
2019-03-24T05:11:52.089Z,50.07
2019-03-24T05:14:22.227Z,65.83
2019-03-24T05:16:53.158Z,63.60
2019-03-24T05:19:23.216Z,55.43
2019-03-24T05:21:53.271Z,50.40
2019-03-24T05:24:23.422Z,66.47
2019-03-24T05:26:53.472Z,66.38
2019-03-24T05:29:24.528Z,65.20
2019-03-24T05:31:54.564Z,61.37
2019-03-24T05:34:25.292Z,70.75
2019-03-24T05:36:55.345Z,64.27
2019-03-24T05:39:26.390Z,71.65
2019-03-24T05:41:56.418Z,61.97
2019-03-24T05:44:26.505Z,69.00
2019-03-24T05:46:56.583Z,65.20
2019-03-24T05:49:26.640Z,58.90
2019-03-24T05:51:56.713Z,68.42
2019-03-24T05:54:26.750Z,62.95
2019-03-24T05:56:56.934Z,73.60
2019-03-24T05:59:26.983Z,73.85
2019-03-24T06:01:57.029Z,80.00
2019-03-24T06:04:27.087Z,82.53
2019-03-24T06:06:57.145Z,82.50
2019-03-24T06:09:27.224Z,88.73
2019-03-24T06:11:57.291Z,71.87
2019-03-24T06:14:27.444Z,76.77
2019-03-24T06:16:57.514Z,76.10
2019-03-24T06:19:27.568Z,69.53
2019-03-24T06:21:57.640Z,74.50
2019-03-24T06:24:27.689Z,76.53
2019-03-24T06:26:57.768Z,70.10
2019-03-24T06:29:27.823Z,73.57
2019-03-24T06:31:57.898Z,69.80
2019-03-24T06:34:27.979Z,68.33
2019-03-24T06:36:58.038Z,83.10
2019-03-24T06:39:28.088Z,77.82
2019-03-24T06:41:58.158Z,74.80
2019-03-24T06:44:28.220Z,78.00
2019-03-24T06:46:58.364Z,75.45
2019-03-24T06:49:28.455Z,66.73
2019-03-24T06:51:58.503Z,73.87
2019-03-24T06:54:28.576Z,69.45
2019-03-24T06:56:58.652Z,64.57
2019-03-24T06:59:28.731Z,82.10
2019-03-24T07:01:58.802Z,66.05
2019-03-24T07:04:28.861Z,79.20
2019-03-24T07:06:58.964Z,78.83
2019-03-24T07:09:29.009Z,76.93
2019-03-24T07:12:00.163Z,69.63
2019-03-24T07:14:30.342Z,65.77
2019-03-24T07:17:00.387Z,80.40
2019-03-24T07:19:30.475Z,71.80
2019-03-24T07:22:00.540Z,74.40
2019-03-24T07:24:31.577Z,76.47
2019-03-24T07:27:01.659Z,72.45
2019-03-24T07:29:31.753Z,71.63
2019-03-24T07:32:01.822Z,79.75
2019-03-24T07:34:31.862Z,80.80
2019-03-24T07:37:01.935Z,97.80
2019-03-24T07:39:31.978Z,82.20
2019-03-24T07:42:02.054Z,81.25
2019-03-24T07:44:32.110Z,94.50
2019-03-24T07:47:06.321Z,92.27
2019-03-24T07:49:36.450Z,98.30
2019-03-24T07:52:06.490Z,87.37
2019-03-24T07:54:36.628Z,79.75
2019-03-24T07:57:06.681Z,82.96
2019-03-24T07:59:36.777Z,94.80
2019-03-24T08:02:07.759Z,81.12
2019-03-24T08:04:38.879Z,85.10
2019-03-24T08:07:08.923Z,101.82
2019-03-24T08:09:38.980Z,93.67
2019-03-24T08:12:09.081Z,89.03
2019-03-24T08:14:39.136Z,84.00
2019-03-24T08:17:09.203Z,92.10
2019-03-24T08:19:39.243Z,77.65
2019-03-24T08:22:09.320Z,84.65
2019-03-24T08:24:39.354Z,81.08
2019-03-24T08:27:09.414Z,75.70
2019-03-24T08:29:39.467Z,83.78
2019-03-24T08:32:09.557Z,71.90
2019-03-24T08:34:39.603Z,71.80
2019-03-24T08:37:09.686Z,56.33
2019-03-24T08:39:40.529Z,60.70
2019-03-24T08:42:10.653Z,60.83
2019-03-24T08:44:40.704Z,62.40
2019-03-24T08:47:10.840Z,56.97
2019-03-24T08:49:40.860Z,68.37
2019-03-24T08:52:10.911Z,68.20
2019-03-24T08:54:40.998Z,69.80
2019-03-24T08:57:11.045Z,60.77
2019-03-24T08:59:41.125Z,58.80
2019-03-24T09:02:11.353Z,78.92
2019-03-24T09:04:42.535Z,69.80
2019-03-24T09:07:12.608Z,66.80
2019-03-24T09:09:42.766Z,79.07
2019-03-24T09:12:12.838Z,65.17
2019-03-24T09:14:42.901Z,71.70
2019-03-24T09:17:12.969Z,74.90
2019-03-24T09:19:43.017Z,64.22
2019-03-24T09:22:13.094Z,68.70
2019-03-24T09:24:43.171Z,62.17
2019-03-24T09:27:13.271Z,63.87
2019-03-24T09:29:43.321Z,58.35
2019-03-24T09:34:55.791Z,60.52
2019-03-24T09:37:25.847Z,55.78
2019-03-24T09:39:55.938Z,55.15
2019-03-24T09:42:26.726Z,57.10
2019-03-24T09:44:56.808Z,53.97
2019-03-24T09:47:26.969Z,52.30
2019-03-24T09:49:57.067Z,60.93
2019-03-24T09:52:27.174Z,53.28
2019-03-24T09:54:57.380Z,48.43
2019-03-24T09:57:27.571Z,53.02
2019-03-24T09:59:57.686Z,40.70
2019-03-24T10:02:27.808Z,41.57
2019-03-24T10:04:57.884Z,37.08
2019-03-24T10:07:27.967Z,38.10
2019-03-24T10:09:58.036Z,37.53
2019-03-24T10:12:28.129Z,43.92
2019-03-24T10:14:58.227Z,42.13
2019-03-24T10:17:28.323Z,32.35
2019-03-24T10:19:59.373Z,43.10
2019-03-24T10:22:29.460Z,42.13
2019-03-24T10:24:59.536Z,44.90
2019-03-24T10:27:29.631Z,47.10
2019-03-24T10:29:59.743Z,46.58
2019-03-24T10:32:29.870Z,49.42
2019-03-24T10:34:59.933Z,41.20
2019-03-24T10:37:30.158Z,44.55
2019-03-24T10:40:00.370Z,42.50
2019-03-24T10:42:30.418Z,33.80
2019-03-24T10:45:01.597Z,40.35
2019-03-24T10:47:32.641Z,40.00
2019-03-24T10:50:02.740Z,44.88
2019-03-24T10:52:32.841Z,32.63
2019-03-24T10:55:02.922Z,41.43
2019-03-24T10:57:32.975Z,34.10
2019-03-24T11:00:04.357Z,29.37
2019-03-24T11:02:34.486Z,23.25
2019-03-24T11:05:05.301Z,19.50
2019-03-24T11:07:37.120Z,16.60
2019-03-24T11:10:08.073Z,20.43
2019-03-24T11:12:38.228Z,19.95
2019-03-24T11:15:09.360Z,24.30
2019-03-24T11:17:39.752Z,25.53
2019-03-24T11:20:10.082Z,18.37
2019-03-24T11:22:40.703Z,18.45
2019-03-24T11:25:11.303Z,18.23
2019-03-24T11:27:41.877Z,25.95
2019-03-24T11:30:13.451Z,27.62
2019-03-24T11:32:43.586Z,30.77
2019-03-24T11:35:13.944Z,26.00
2019-03-24T11:37:44.021Z,28.33
2019-03-24T11:40:14.285Z,23.70
2019-03-24T11:42:45.408Z,18.23
2019-03-24T11:45:16.733Z,20.20
2019-03-24T11:47:46.797Z,16.75
2019-03-24T11:50:17.010Z,17.20
2019-03-24T11:52:47.082Z,22.37
2019-03-24T11:55:17.302Z,19.27
2019-03-24T11:57:47.428Z,21.53
2019-03-24T12:00:20.020Z,21.93
2019-03-24T12:02:50.118Z,23.60
2019-03-24T12:05:20.271Z,16.40
2019-03-24T12:07:51.993Z,18.67
2019-03-24T12:10:22.129Z,34.50
2019-03-24T12:12:52.209Z,25.55
2019-03-24T12:15:22.361Z,27.50
2019-03-24T12:17:52.452Z,32.93
2019-03-24T12:20:22.550Z,29.75
2019-03-24T12:22:53.753Z,26.83
2019-03-24T12:25:23.815Z,27.35
2019-03-24T12:27:53.898Z,26.10
2019-03-24T12:30:24.012Z,30.30
2019-03-24T12:32:54.124Z,29.35
2019-03-24T12:35:24.182Z,26.30
2019-03-24T12:37:54.379Z,28.87
2019-03-24T12:40:24.463Z,28.95
2019-03-24T12:42:54.547Z,26.37
2019-03-24T12:45:24.609Z,33.25
2019-03-24T12:47:54.743Z,26.50
2019-03-24T12:50:31.363Z,20.43
2019-03-24T12:52:56.861Z,28.32
2019-03-24T12:55:26.916Z,29.50
2019-03-24T12:57:57.156Z,28.40
2019-03-24T13:00:38.573Z,22.30
2019-03-24T13:03:08.743Z,23.73
2019-03-24T13:05:38.913Z,21.12
2019-03-24T13:08:14.628Z,20.08
2019-03-24T13:10:45.679Z,24.72
2019-03-24T13:13:15.876Z,18.23
2019-03-24T13:15:46.110Z,19.07
2019-03-24T13:18:16.196Z,19.50
2019-03-24T13:20:46.377Z,17.15
2019-03-24T13:23:16.462Z,16.13
2019-03-24T13:25:46.563Z,13.55
2019-03-24T13:28:16.674Z,13.75
2019-03-24T13:30:47.429Z,12.40
2019-03-24T13:33:17.581Z,11.50
2019-03-24T13:35:50.224Z,12.23
2019-03-24T13:38:20.301Z,10.23
2019-03-24T13:40:50.382Z,12.27
2019-03-24T13:43:20.458Z,10.38
2019-03-24T13:45:50.549Z,11.48
2019-03-24T13:48:20.611Z,14.30
2019-03-24T13:50:50.693Z,12.07
2019-03-24T13:53:20.774Z,11.00
2019-03-24T13:55:50.833Z,14.38
2019-03-24T13:58:20.922Z,12.70
2019-03-24T14:00:51.015Z,10.43
2019-03-24T14:03:21.106Z,10.18
2019-03-24T14:05:51.154Z,14.20
2019-03-24T14:08:21.264Z,14.80
2019-03-24T14:10:51.322Z,13.68
2019-03-24T14:13:21.487Z,12.37
2019-03-24T14:15:51.628Z,14.60
2019-03-24T14:18:21.712Z,19.77
2019-03-24T14:20:51.790Z,20.97
2019-03-24T14:23:21.940Z,13.88
2019-03-24T14:25:52.042Z,21.15
2019-03-24T14:28:22.132Z,15.37
2019-03-24T14:30:52.300Z,14.70
2019-03-24T14:33:22.380Z,15.23
2019-03-24T14:35:52.485Z,11.90
2019-03-24T14:38:22.626Z,9.57
2019-03-24T14:40:52.669Z,12.90
2019-03-24T14:43:22.755Z,9.50
2019-03-24T14:45:52.803Z,7.05
2019-03-24T14:48:22.896Z,6.42
2019-03-24T14:50:54.850Z,7.60
2019-03-24T14:53:24.726Z,6.10
2019-03-24T14:55:54.793Z,7.90
2019-03-24T14:58:24.863Z,9.00
2019-03-24T15:00:54.948Z,7.13
2019-03-24T15:03:25.025Z,4.42
2019-03-24T15:05:55.117Z,8.28
2019-03-24T15:08:25.171Z,7.75
2019-03-24T15:10:55.238Z,5.57
2019-03-24T15:13:25.309Z,5.60
2019-03-24T15:15:55.469Z,4.03
2019-03-24T15:18:25.522Z,3.90
2019-03-24T15:21:05.092Z,8.00
2019-03-24T15:23:27.434Z,7.47
2019-03-24T15:25:57.471Z,7.28
2019-03-24T15:28:27.556Z,8.65
2019-03-24T15:30:57.584Z,8.10
2019-03-24T15:33:27.647Z,8.83
2019-03-24T15:35:57.714Z,10.93
2019-03-24T15:38:27.900Z,11.43
2019-03-24T15:40:57.934Z,9.50
2019-03-24T15:43:28.115Z,8.28
2019-03-24T15:45:58.183Z,7.25
2019-03-24T15:48:28.257Z,3.92
2019-03-24T15:50:58.337Z,6.35
2019-03-24T15:53:28.495Z,5.72
2019-03-24T15:55:58.534Z,4.05
2019-03-24T15:58:28.603Z,5.73
2019-03-24T16:00:58.691Z,9.53
2019-03-24T16:03:28.730Z,8.40
2019-03-24T16:05:58.868Z,9.17
2019-03-24T16:08:28.870Z,6.97
2019-03-24T16:10:58.965Z,6.40
2019-03-24T16:13:29.015Z,6.33
2019-03-24T16:15:59.102Z,8.90
2019-03-24T16:18:29.149Z,5.60
2019-03-24T16:20:59.307Z,7.27
2019-03-24T16:23:29.384Z,6.50
2019-03-24T16:25:59.469Z,11.03
2019-03-24T16:28:29.517Z,5.62
2019-03-24T16:30:59.583Z,12.70
2019-03-24T16:33:29.639Z,10.63
2019-03-24T16:35:59.733Z,9.23
2019-03-24T16:38:29.779Z,8.13
2019-03-24T16:40:59.828Z,8.33
2019-03-24T16:43:29.920Z,7.30
2019-03-24T16:46:00.054Z,8.80
2019-03-24T16:48:36.853Z,11.77
2019-03-24T16:51:01.900Z,9.98
2019-03-24T16:53:32.103Z,11.43
2019-03-24T16:56:02.147Z,12.13
2019-03-24T16:58:32.255Z,7.42
2019-03-24T17:01:02.305Z,11.05
2019-03-24T17:03:32.412Z,14.20
2019-03-24T17:06:02.473Z,11.22
2019-03-24T17:08:32.556Z,13.27
2019-03-24T17:11:03.059Z,10.35
2019-03-24T17:13:33.814Z,12.47
2019-03-24T17:16:03.859Z,12.28
2019-03-24T17:18:33.937Z,17.42
2019-03-24T17:21:04.104Z,15.30
2019-03-24T17:23:34.193Z,17.25
2019-03-24T17:26:04.308Z,24.98
2019-03-24T17:28:34.399Z,9.85
2019-03-24T17:31:04.464Z,18.05
2019-03-24T17:33:34.535Z,16.53
2019-03-24T17:36:04.589Z,13.27
2019-03-24T17:38:34.731Z,16.55
2019-03-24T17:41:04.775Z,15.10
2019-03-24T17:43:34.867Z,21.75
2019-03-24T17:46:07.690Z,14.50
2019-03-24T17:48:37.781Z,13.70
2019-03-24T17:51:07.840Z,18.50
2019-03-24T17:53:37.896Z,20.05
2019-03-24T17:56:08.011Z,17.10
2019-03-24T17:58:38.024Z,13.60
2019-03-24T18:01:09.061Z,11.63
2019-03-24T18:03:39.125Z,13.53
2019-03-24T18:06:09.259Z,18.00
2019-03-24T18:08:39.434Z,13.13
2019-03-24T18:11:09.495Z,20.43
2019-03-24T18:13:39.549Z,25.08
2019-03-24T18:16:09.624Z,21.60
2019-03-24T18:18:39.686Z,31.90
2019-03-24T18:21:09.786Z,26.00
2019-03-24T18:23:39.950Z,20.77
2019-03-24T18:26:10.044Z,17.10
2019-03-24T18:28:41.166Z,17.87
2019-03-24T18:31:12.465Z,23.42
2019-03-24T18:33:42.644Z,21.90
2019-03-24T18:36:13.771Z,18.77
2019-03-24T18:38:45.258Z,15.43
2019-03-24T18:41:15.313Z,18.62
2019-03-24T18:43:45.446Z,20.90
2019-03-24T18:46:16.468Z,18.23
2019-03-24T18:48:46.552Z,25.12
2019-03-24T18:51:16.634Z,22.60
2019-03-24T18:53:46.803Z,13.60
2019-03-24T18:56:16.888Z,17.95
2019-03-24T18:58:46.965Z,21.10
2019-03-24T19:01:17.125Z,17.70
2019-03-24T19:03:47.179Z,16.55
2019-03-24T19:06:17.317Z,20.35
2019-03-24T19:08:47.542Z,22.63
2019-03-24T19:11:17.629Z,14.43
2019-03-24T19:13:47.707Z,17.30
2019-03-24T19:16:17.840Z,18.13
2019-03-24T19:18:47.916Z,17.17
2019-03-24T19:21:18.182Z,24.97
2019-03-24T19:23:48.387Z,31.75
2019-03-24T19:26:18.497Z,24.27
2019-03-24T19:28:48.606Z,23.60
2019-03-24T19:31:18.777Z,20.75
2019-03-24T19:33:48.906Z,15.63
2019-03-24T19:36:18.997Z,24.50
2019-03-24T19:38:49.869Z,17.43
2019-03-24T19:41:19.946Z,17.17
2019-03-24T19:43:50.028Z,20.97
2019-03-24T19:46:20.281Z,21.30
2019-03-24T19:48:50.379Z,21.20
2019-03-24T19:51:20.442Z,23.55
2019-03-24T19:53:50.635Z,17.10
2019-03-24T19:56:20.701Z,18.07
2019-03-24T19:58:50.917Z,20.80
2019-03-24T20:01:20.978Z,18.77
2019-03-24T20:03:51.082Z,19.83
2019-03-24T20:06:21.150Z,20.62
2019-03-24T20:08:51.329Z,16.10
2019-03-24T20:11:21.395Z,25.70
2019-03-24T20:13:51.492Z,32.03
2019-03-24T20:16:21.631Z,33.73
2019-03-24T20:18:52.025Z,35.90
2019-03-24T20:21:22.166Z,36.80
2019-03-24T20:23:52.217Z,31.30
2019-03-24T20:26:22.318Z,34.57
2019-03-24T20:28:53.343Z,29.57
2019-03-24T20:31:23.430Z,26.37
2019-03-24T20:33:53.547Z,27.83
2019-03-24T20:36:23.614Z,26.40
2019-03-24T20:38:53.709Z,25.95
2019-03-24T20:41:23.793Z,23.10
2019-03-24T20:43:53.889Z,18.35
2019-03-24T20:46:23.999Z,17.02
2019-03-24T20:48:54.056Z,22.53
2019-03-24T20:51:24.126Z,18.05
2019-03-24T20:53:54.218Z,19.50
2019-03-24T20:56:24.708Z,21.45
2019-03-24T20:58:54.780Z,15.43
2019-03-24T21:01:24.890Z,17.60
2019-03-24T21:03:54.936Z,23.60
2019-03-24T21:06:25.021Z,18.40
2019-03-24T21:08:55.086Z,19.73
2019-03-24T21:11:25.159Z,16.87
2019-03-24T21:13:55.214Z,14.90
2019-03-24T21:16:25.638Z,15.13
2019-03-24T21:18:55.753Z,22.07
2019-03-24T21:21:25.829Z,20.97
2019-03-24T21:23:55.897Z,24.07
2019-03-24T21:26:25.977Z,31.40
2019-03-24T21:28:56.021Z,34.43
2019-03-24T21:31:26.096Z,29.05
2019-03-24T21:33:56.166Z,35.07
2019-03-24T21:36:26.242Z,27.90
2019-03-24T21:38:56.290Z,25.20
2019-03-24T21:41:26.375Z,24.03
2019-03-24T21:43:56.424Z,29.30
2019-03-24T21:46:26.516Z,26.02
2019-03-24T21:48:57.701Z,19.65
2019-03-24T21:51:29.001Z,17.50
2019-03-24T21:53:59.084Z,14.53
2019-03-24T21:56:29.187Z,16.20
2019-03-24T21:58:59.292Z,21.63
2019-03-24T22:01:29.366Z,21.05
2019-03-24T22:03:59.497Z,19.30
2019-03-24T22:06:29.571Z,16.12
2019-03-24T22:09:00.019Z,15.15
2019-03-24T22:11:30.110Z,18.77
2019-03-24T22:14:00.174Z,23.02
2019-03-24T22:16:31.223Z,14.23
2019-03-24T22:19:01.293Z,15.55
2019-03-24T22:21:31.399Z,18.00
2019-03-24T22:24:01.491Z,18.93
2019-03-24T22:26:31.589Z,19.95
2019-03-24T22:29:06.288Z,18.80
2019-03-24T22:31:36.281Z,15.98
2019-03-24T22:34:06.328Z,14.75
2019-03-24T22:36:36.448Z,14.70
2019-03-24T22:39:07.658Z,14.50
2019-03-24T22:41:37.747Z,15.17
2019-03-24T22:44:07.780Z,17.10
2019-03-24T22:46:37.819Z,22.00
2019-03-24T22:49:07.878Z,17.73
2019-03-24T22:51:37.924Z,20.88
2019-03-24T22:54:08.002Z,18.25
2019-03-24T22:56:38.082Z,19.73
2019-03-24T22:59:08.120Z,21.12
2019-03-24T23:01:38.166Z,19.70
2019-03-24T23:04:08.243Z,21.93
2019-03-24T23:06:38.285Z,18.75
2019-03-24T23:09:09.319Z,22.58
2019-03-24T23:11:39.522Z,22.00
2019-03-24T23:14:09.578Z,19.02
2019-03-24T23:16:39.625Z,23.10
2019-03-24T23:19:09.688Z,19.10
2019-03-24T23:21:39.738Z,17.40
2019-03-24T23:24:15.451Z,21.80
2019-03-24T23:26:41.532Z,26.45
2019-03-24T23:29:11.606Z,20.75
2019-03-24T23:31:41.639Z,21.15
2019-03-24T23:34:11.774Z,19.17
2019-03-24T23:36:41.836Z,23.75
2019-03-24T23:39:11.937Z,20.10
2019-03-24T23:41:41.975Z,15.53
2019-03-24T23:44:12.023Z,11.70
2019-03-24T23:46:42.072Z,17.35
2019-03-24T23:49:12.133Z,14.03
2019-03-24T23:51:42.190Z,19.75
2019-03-24T23:54:12.248Z,17.85
2019-03-24T23:56:42.391Z,15.70
2019-03-24T23:59:12.442Z,17.85
